Time;durP1;ratioP1;P1;durP2;ratioP2;P2;SDS_P1;SDS_P2;PMS_P1;PMS_P2;Temp;Humidity;BMP_temperature;BMP_pressure;BME280_temperature;BME280_humidity;BME280_pressure;Samples;Min_cycle;Max_cycle;Signal;HPM_P1;HPM_P2
2020/09/17 00:00:41;;;;;;;2.5;2.1;;;;;;;17.1;75.0293;942.147;;;;
2020/09/17 00:03:09;;;;;;;4.1;2.6;;;;;;;17.13;74.86035;942.1292;;;;
2020/09/17 00:05:34;;;;;;;5.3;2.2;;;;;;;17.05;75.1709;942.08;;;;
2020/09/17 00:08:01;;;;;;;3.3;2.3;;;;;;;17.06;75.29785;942.0687;;;;
2020/09/17 00:10:26;;;;;;;4;2.3;;;;;;;17.09;75.03809;942.1199;;;;
2020/09/17 00:12:56;;;;;;;5;2.3;;;;;;;17.06;74.6377;942.1121;;;;
2020/09/17 00:15:34;;;;;;;3.8;2.7;;;;;;;16.98;75.12402;942.2291;;;;
2020/09/17 00:18:06;;;;;;;4.8;2.6;;;;;;;16.94;75.2334;942.2303;;;;
2020/09/17 00:20:39;;;;;;;4.2;2.6;;;;;;;16.94;75.37109;942.1555;;;;
2020/09/17 00:23:05;;;;;;;6.9;2.4;;;;;;;17.02;75.00195;942.1459;;;;
2020/09/17 00:25:30;;;;;;;3.3;2.4;;;;;;;17.08;74.8623;942.1852;;;;
2020/09/17 00:27:59;;;;;;;4.4;2.4;;;;;;;17.09;75.00195;942.177;;;;
2020/09/17 00:30:26;;;;;;;3.7;2;;;;;;;17.11;74.84375;942.1575;;;;
2020/09/17 00:32:59;;;;;;;3.1;1.9;;;;;;;17.02;74.77246;942.1092;;;;
2020/09/17 00:35:26;;;;;;;3.7;2.5;;;;;;;17.01;74.88672;942.1194;;;;
2020/09/17 00:37:51;;;;;;;3;1.9;;;;;;;17.04;74.63477;942.159;;;;
2020/09/17 00:40:18;;;;;;;2.8;2;;;;;;;17.03;74.66895;942.1486;;;;
2020/09/17 00:42:43;;;;;;;8.1;3.1;;;;;;;16.99;74.5918;942.1664;;;;
2020/09/17 00:45:10;;;;;;;3.3;2;;;;;;;16.97;74.54297;942.1601;;;;
2020/09/17 00:47:35;;;;;;;4.4;2.3;;;;;;;16.96;74.36621;942.0845;;;;
2020/09/17 00:50:01;;;;;;;2.7;2.3;;;;;;;16.94;74.30469;942.1;;;;
2020/09/17 00:52:27;;;;;;;4;2.4;;;;;;;16.87;74.51465;942.1794;;;;
2020/09/17 00:54:53;;;;;;;3.8;2.2;;;;;;;16.8;74.82617;942.1926;;;;
2020/09/17 00:57:20;;;;;;;5.1;2;;;;;;;16.78;75.1123;942.2402;;;;
2020/09/17 00:59:45;;;;;;;2.8;1.9;;;;;;;16.87;74.73438;942.2961;;;;
2020/09/17 01:02:15;;;;;;;2.4;2.1;;;;;;;16.86;74.73145;942.2922;;;;
2020/09/17 01:04:40;;;;;;;2.6;2;;;;;;;16.79;74.71875;942.2787;;;;
2020/09/17 01:07:05;;;;;;;3.1;2.2;;;;;;;16.62;75.37402;942.2594;;;;
2020/09/17 01:09:30;;;;;;;3.9;2.5;;;;;;;16.46;75.94824;942.283;;;;
2020/09/17 01:11:56;;;;;;;3.1;2.4;;;;;;;16.48;76.41406;942.3432;;;;
2020/09/17 01:14:21;;;;;;;3.5;2.3;;;;;;;16.58;75.98047;942.3304;;;;
2020/09/17 01:16:47;;;;;;;4.3;2.7;;;;;;;16.59;75.57813;942.3279;;;;
2020/09/17 01:19:12;;;;;;;4.3;2.3;;;;;;;16.53;76.10156;942.313;;;;
2020/09/17 01:21:37;;;;;;;4.1;2.3;;;;;;;16.64;75.86523;942.3278;;;;
2020/09/17 01:24:02;;;;;;;2.8;1.8;;;;;;;16.74;75.47754;942.366;;;;
2020/09/17 01:26:28;;;;;;;3.4;2.1;;;;;;;16.81;74.99023;942.3887;;;;
2020/09/17 01:28:54;;;;;;;3.7;2.2;;;;;;;16.81;75.04785;942.3517;;;;
2020/09/17 01:31:19;;;;;;;3.7;2.3;;;;;;;16.84;74.85547;942.3197;;;;
2020/09/17 01:33:45;;;;;;;4.8;2.3;;;;;;;16.86;74.73242;942.3918;;;;
2020/09/17 01:36:10;;;;;;;4.2;2.6;;;;;;;16.87;74.51465;942.3452;;;;
2020/09/17 01:38:37;;;;;;;5.7;2.5;;;;;;;16.74;75.10645;942.329;;;;
2020/09/17 01:41:02;;;;;;;2.5;1.8;;;;;;;16.78;75.16895;942.3046;;;;
2020/09/17 01:43:28;;;;;;;2.4;1.7;;;;;;;16.79;75.02148;942.3472;;;;
2020/09/17 01:45:53;;;;;;;3.2;2;;;;;;;16.69;75.1084;942.2964;;;;
2020/09/17 01:48:19;;;;;;;4.5;2.4;;;;;;;16.59;75.55469;942.2764;;;;
2020/09/17 01:50:44;;;;;;;4.1;2.1;;;;;;;16.59;75.6709;942.266;;;;
2020/09/17 01:53:11;;;;;;;3.2;2.3;;;;;;;16.59;76.06445;942.2507;;;;
2020/09/17 01:55:36;;;;;;;4.9;2.5;;;;;;;16.6;75.69434;942.2217;;;;
2020/09/17 01:58:02;;;;;;;4;2.4;;;;;;;16.63;75.94141;942.2355;;;;
2020/09/17 02:00:27;;;;;;;3.5;2.6;;;;;;;16.62;75.75684;942.2372;;;;
2020/09/17 02:02:52;;;;;;;4.4;2;;;;;;;16.59;75.7168;942.2845;;;;
2020/09/17 02:05:17;;;;;;;3.6;2.2;;;;;;;16.58;76.00293;942.205;;;;
2020/09/17 02:07:42;;;;;;;3.4;2.4;;;;;;;16.58;76.00293;942.2122;;;;
2020/09/17 02:10:08;;;;;;;6;1.9;;;;;;;16.6;75.8457;942.2322;;;;
2020/09/17 02:12:33;;;;;;;2.3;1.8;;;;;;;16.63;75.7002;942.2114;;;;
2020/09/17 02:14:59;;;;;;;4.5;2.4;;;;;;;16.66;75.55566;942.2256;;;;
2020/09/17 02:17:24;;;;;;;3;2;;;;;;;16.65;75.5293;942.1992;;;;
2020/09/17 02:19:49;;;;;;;2.1;1.9;;;;;;;16.63;75.69824;942.1985;;;;
2020/09/17 02:22:14;;;;;;;4.2;2.3;;;;;;;16.56;75.94238;942.1593;;;;
2020/09/17 02:24:40;;;;;;;3;2;;;;;;;16.54;75.9043;942.0975;;;;
2020/09/17 02:27:05;;;;;;;4.2;2.4;;;;;;;16.53;75.84375;942.1129;;;;
2020/09/17 02:29:32;;;;;;;4.3;2.6;;;;;;;16.51;76.15332;942.1597;;;;
2020/09/17 02:31:57;;;;;;;3.7;2.3;;;;;;;16.55;76.27637;942.1312;;;;
2020/09/17 02:34:22;;;;;;;2.8;2.2;;;;;;;16.58;76.08594;942.1961;;;;
2020/09/17 02:36:48;;;;;;;4.8;2.5;;;;;;;16.41;76.90234;942.1954;;;;
2020/09/17 02:39:14;;;;;;;4.5;2.5;;;;;;;16.49;76.86719;942.2112;;;;
2020/09/17 02:41:43;;;;;;;5.7;2.7;;;;;;;16.45;77.18555;942.1649;;;;
2020/09/17 02:44:08;;;;;;;3.7;2.5;;;;;;;16.5;77.62305;942.1686;;;;
2020/09/17 02:46:40;;;;;;;2.6;2;;;;;;;16.45;77.65918;942.0869;;;;
2020/09/17 02:49:05;;;;;;;3.6;2.6;;;;;;;16.44;77.05664;942.0316;;;;
2020/09/17 02:51:30;;;;;;;2.9;1.9;;;;;;;16.42;77.14551;942.0767;;;;
2020/09/17 02:53:55;;;;;;;3.9;2.1;;;;;;;16.47;77.38477;942.0225;;;;
2020/09/17 02:56:21;;;;;;;4.2;2.6;;;;;;;16.43;77.25098;942.0477;;;;
2020/09/17 02:58:46;;;;;;;3.7;2.3;;;;;;;16.4;77.48828;942.0758;;;;
2020/09/17 03:01:13;;;;;;;4.8;2.1;;;;;;;16.38;77.73926;941.9971;;;;
2020/09/17 03:03:38;;;;;;;3.6;2.2;;;;;;;16.42;77.40039;942.0261;;;;
2020/09/17 03:06:03;;;;;;;4.4;2.5;;;;;;;16.37;77.76074;942.0583;;;;
2020/09/17 03:08:28;;;;;;;4.7;2.6;;;;;;;16.32;77.7627;942.0506;;;;
2020/09/17 03:10:56;;;;;;;11.4;2.4;;;;;;;16.31;77.56641;942.053;;;;
2020/09/17 03:13:21;;;;;;;4.6;2.5;;;;;;;16.3;77.39063;942.0322;;;;
2020/09/17 03:15:47;;;;;;;4.9;2.2;;;;;;;16.29;77.42285;942.0547;;;;
2020/09/17 03:18:12;;;;;;;2.6;2;;;;;;;16.3;77.30859;942.0884;;;;
2020/09/17 03:20:37;;;;;;;3;2.1;;;;;;;16.3;77.35645;942.0884;;;;
2020/09/17 03:23:03;;;;;;;4.2;2.3;;;;;;;16.34;77.31641;942.13;;;;
2020/09/17 03:25:28;;;;;;;7.3;2.3;;;;;;;16.33;77.37305;942.241;;;;
2020/09/17 03:27:53;;;;;;;3.6;2.2;;;;;;;16.29;77.28418;942.2709;;;;
2020/09/17 03:30:27;;;;;;;3.1;2.4;;;;;;;16.31;77.38086;942.225;;;;
2020/09/17 03:32:52;;;;;;;3.4;2.2;;;;;;;16.25;77.39355;942.2615;;;;
2020/09/17 03:35:19;;;;;;;4.9;2.5;;;;;;;16.15;77.83789;942.2586;;;;
2020/09/17 03:37:45;;;;;;;3.1;2.3;;;;;;;16.19;77.85645;942.1869;;;;
2020/09/17 03:40:10;;;;;;;4;2.4;;;;;;;16.21;77.7334;942.2784;;;;
2020/09/17 03:42:36;;;;;;;2.8;2.1;;;;;;;16.21;77.90527;942.2559;;;;
2020/09/17 03:45:01;;;;;;;4.1;2.5;;;;;;;16.21;77.75684;942.1795;;;;
2020/09/17 03:47:27;;;;;;;2.8;2.1;;;;;;;16.22;77.60645;942.1241;;;;
2020/09/17 03:49:52;;;;;;;4.4;2.5;;;;;;;16.25;77.68262;942.2158;;;;
2020/09/17 03:52:19;;;;;;;2.9;1.9;;;;;;;16.18;77.57813;942.2344;;;;
2020/09/17 03:54:44;;;;;;;4.1;2.4;;;;;;;16.01;77.89355;942.1836;;;;
2020/09/17 03:57:11;;;;;;;3.6;2.5;;;;;;;15.68;79.8457;942.1848;;;;
2020/09/17 03:59:35;;;;;;;6.2;2.6;;;;;;;15.81;79.5918;942.2349;;;;
2020/09/17 04:02:37;;;;;;;2.9;2.4;;;;;;;15.87;79.32617;942.2051;;;;
2020/09/17 04:05:02;;;;;;;5.2;2.5;;;;;;;15.95;79.14355;942.2618;;;;
2020/09/17 04:07:31;;;;;;;4.1;2.3;;;;;;;16.02;78.94727;942.2939;;;;
2020/09/17 04:09:57;;;;;;;4.5;2.6;;;;;;;16.04;78.62793;942.3114;;;;
2020/09/17 04:12:22;;;;;;;3.7;2.4;;;;;;;16.09;78.66113;942.3111;;;;
2020/09/17 04:14:47;;;;;;;5.3;2.5;;;;;;;16.13;78.61133;942.3447;;;;
2020/09/17 04:17:12;;;;;;;7.4;3;;;;;;;16.18;78.42285;942.3661;;;;
2020/09/17 04:19:37;;;;;;;3.4;2.2;;;;;;;16.23;78.00293;942.363;;;;
2020/09/17 04:22:02;;;;;;;7.1;2.4;;;;;;;16.22;77.95313;942.3474;;;;
2020/09/17 04:24:29;;;;;;;2.5;2;;;;;;;16.27;77.7666;942.394;;;;
2020/09/17 04:26:54;;;;;;;5.1;2.4;;;;;;;16.22;78;942.4177;;;;
2020/09/17 04:29:19;;;;;;;4.4;3;;;;;;;16.25;77.97168;942.3909;;;;
2020/09/17 04:31:45;;;;;;;6.4;2.7;;;;;;;16.31;77.63379;942.3786;;;;
2020/09/17 04:34:11;;;;;;;4.6;2.8;;;;;;;16.34;77.38574;942.4305;;;;
2020/09/17 04:36:36;;;;;;;3.8;2.4;;;;;;;16.31;77.38086;942.4211;;;;
2020/09/17 04:39:03;;;;;;;3.5;2.4;;;;;;;16.15;77.76855;942.3792;;;;
2020/09/17 04:41:27;;;;;;;7.7;2.7;;;;;;;16.15;77.84961;942.3446;;;;
2020/09/17 04:43:53;;;;;;;3.2;2.6;;;;;;;16.09;78.05957;942.2581;;;;
2020/09/17 04:46:19;;;;;;;5;3.2;;;;;;;16.06;78.12305;942.2808;;;;
2020/09/17 04:48:44;;;;;;;4.1;2.2;;;;;;;16.03;78.29102;942.2247;;;;
2020/09/17 04:51:12;;;;;;;4.4;2.6;;;;;;;16.01;78.51758;942.288;;;;
2020/09/17 04:53:38;;;;;;;4.8;3;;;;;;;16.02;78.40332;942.3148;;;;
2020/09/17 04:56:03;;;;;;;6;2.8;;;;;;;15.94;78.72461;942.351;;;;
2020/09/17 04:58:32;;;;;;;5.3;2.8;;;;;;;15.95;78.67188;942.3734;;;;
2020/09/17 05:01:00;;;;;;;13.2;3.5;;;;;;;15.94;78.88672;942.392;;;;
2020/09/17 05:03:25;;;;;;;4.1;2.9;;;;;;;15.97;78.81152;942.3758;;;;
2020/09/17 05:05:50;;;;;;;7.6;2.9;;;;;;;15.89;78.94922;942.4042;;;;
2020/09/17 05:08:16;;;;;;;3.9;2.3;;;;;;;15.85;79.24023;942.4486;;;;
2020/09/17 05:10:43;;;;;;;4.3;2.8;;;;;;;15.84;79.40039;942.4061;;;;
2020/09/17 05:13:07;;;;;;;4.8;2.6;;;;;;;15.85;79.25195;942.3859;;;;
2020/09/17 05:15:33;;;;;;;3.8;2.3;;;;;;;15.88;79.25781;942.4211;;;;
2020/09/17 05:17:58;;;;;;;4.4;2.4;;;;;;;15.89;79.27246;942.4187;;;;
2020/09/17 05:20:25;;;;;;;5.1;2.7;;;;;;;15.95;78.98242;942.4385;;;;
2020/09/17 05:22:53;;;;;;;4.8;3;;;;;;;15.96;79.00684;942.5613;;;;
2020/09/17 05:25:19;;;;;;;4.5;2.7;;;;;;;15.94;79.18652;942.5734;;;;
2020/09/17 05:27:49;;;;;;;6;3;;;;;;;15.89;79.17676;942.5978;;;;
2020/09/17 05:30:13;;;;;;;3.4;2.5;;;;;;;15.97;78.73242;942.5999;;;;
2020/09/17 05:32:44;;;;;;;5.9;3.2;;;;;;;16;78.69141;942.5571;;;;
2020/09/17 05:35:09;;;;;;;4.6;2.9;;;;;;;15.9;79.20508;942.5672;;;;
2020/09/17 05:37:34;;;;;;;5.5;2.7;;;;;;;15.72;80.0625;942.5154;;;;
2020/09/17 05:39:59;;;;;;;4.9;2.7;;;;;;;15.7;80.83105;942.5508;;;;
2020/09/17 05:42:24;;;;;;;4.6;2.5;;;;;;;15.67;80.82617;942.5694;;;;
2020/09/17 05:44:50;;;;;;;5.1;3;;;;;;;15.7;81.31641;942.5588;;;;
2020/09/17 05:47:15;;;;;;;5;2.7;;;;;;;15.81;80.99023;942.593;;;;
2020/09/17 05:49:43;;;;;;;4.5;2.5;;;;;;;15.95;80.39258;942.5758;;;;
2020/09/17 05:52:09;;;;;;;7.4;3.2;;;;;;;15.98;80.53613;942.5926;;;;
2020/09/17 05:54:34;;;;;;;3.9;2.4;;;;;;;16.05;80.13281;942.57;;;;
2020/09/17 05:56:59;;;;;;;5.8;2.5;;;;;;;16.18;79.0127;942.62;;;;
2020/09/17 05:59:24;;;;;;;5.6;2.7;;;;;;;16.18;78.97656;942.6305;;;;
2020/09/17 06:01:50;;;;;;;7.1;2.7;;;;;;;16.18;78.95508;942.6039;;;;
2020/09/17 06:04:18;;;;;;;4.3;2.2;;;;;;;16.28;79.14453;942.6841;;;;
2020/09/17 06:06:46;;;;;;;4.4;2.9;;;;;;;16.38;79.24414;942.7463;;;;
2020/09/17 06:09:11;;;;;;;6.7;2.6;;;;;;;16.44;77.88965;942.7172;;;;
2020/09/17 06:11:36;;;;;;;4.1;2.7;;;;;;;16.45;77.43945;942.7381;;;;
2020/09/17 06:14:03;;;;;;;10.4;3.3;;;;;;;16.43;77.58691;942.7495;;;;
2020/09/17 06:16:28;;;;;;;6.9;3.1;;;;;;;16.46;77.68457;942.808;;;;
2020/09/17 06:18:54;;;;;;;2.7;2;;;;;;;16.55;77.59668;942.7769;;;;
2020/09/17 06:21:19;;;;;;;3.1;2.2;;;;;;;16.69;77.75098;942.8006;;;;
2020/09/17 06:23:45;;;;;;;5.7;2.8;;;;;;;16.84;77.2207;942.8433;;;;
2020/09/17 06:26:10;;;;;;;4.6;2.4;;;;;;;16.94;77.20117;942.8209;;;;
2020/09/17 06:28:37;;;;;;;4.4;2.5;;;;;;;16.85;76.6543;942.9358;;;;
2020/09/17 06:31:02;;;;;;;4.3;2.7;;;;;;;16.95;76.81055;943.0058;;;;
2020/09/17 06:33:27;;;;;;;4.7;2.5;;;;;;;17.06;76.15723;942.9867;;;;
2020/09/17 06:35:52;;;;;;;5.3;2.6;;;;;;;17.12;76.61914;943.0571;;;;
2020/09/17 06:38:17;;;;;;;13.7;2.6;;;;;;;17.04;77.9043;943.0867;;;;
2020/09/17 06:40:43;;;;;;;5.9;3;;;;;;;17.29;76.13867;943.1381;;;;
2020/09/17 06:43:11;;;;;;;5.3;3.3;;;;;;;17.34;75.43945;943.1635;;;;
2020/09/17 06:45:36;;;;;;;6.6;2.9;;;;;;;17.37;75.19043;943.1172;;;;
2020/09/17 06:48:01;;;;;;;6.3;2.8;;;;;;;17.34;75.43945;943.1867;;;;
2020/09/17 06:50:27;;;;;;;4.2;2.7;;;;;;;17.27;76.64453;943.2051;;;;
2020/09/17 06:52:53;;;;;;;7.6;2.7;;;;;;;17.52;75.81934;943.162;;;;
2020/09/17 06:55:17;;;;;;;4.4;2.7;;;;;;;17.66;74.98438;943.157;;;;
2020/09/17 06:57:47;;;;;;;8.5;2.5;;;;;;;17.89;74.5;943.2067;;;;
2020/09/17 07:00:14;;;;;;;2.9;2.1;;;;;;;18.16;73.1416;943.1708;;;;
2020/09/17 07:02:39;;;;;;;4.8;2.6;;;;;;;18.4;74.30957;943.1786;;;;
2020/09/17 07:05:08;;;;;;;3;2.3;;;;;;;18.59;73.52637;943.2225;;;;
2020/09/17 07:07:34;;;;;;;4.7;2.7;;;;;;;18.76;71.06543;943.2466;;;;
2020/09/17 07:09:59;;;;;;;4.8;2.3;;;;;;;18.64;70.33691;943.1909;;;;
2020/09/17 07:12:28;;;;;;;4.1;2.5;;;;;;;18.48;71.31055;943.257;;;;
2020/09/17 07:14:59;;;;;;;5.2;2.4;;;;;;;18.44;71.82617;943.1955;;;;
2020/09/17 07:17:30;;;;;;;13.4;2.5;;;;;;;18.36;71.51074;943.2292;;;;
2020/09/17 07:20:01;;;;;;;3;2.4;;;;;;;18.21;71.80078;943.2178;;;;
2020/09/17 07:22:28;;;;;;;3.1;2.4;;;;;;;18.07;71.97656;943.3114;;;;
2020/09/17 07:24:53;;;;;;;4.8;2.6;;;;;;;18.23;71.53809;943.2816;;;;
2020/09/17 07:27:18;;;;;;;4.5;2.4;;;;;;;18.13;71.49707;943.3736;;;;
2020/09/17 07:29:43;;;;;;;2.9;2;;;;;;;18.24;71.73633;943.3201;;;;
2020/09/17 07:32:11;;;;;;;4.1;2.7;;;;;;;18.27;71.88086;943.315;;;;
2020/09/17 07:34:36;;;;;;;3.1;2;;;;;;;18.31;72.02637;943.3298;;;;
2020/09/17 07:37:01;;;;;;;4.8;2.7;;;;;;;18.39;71.23828;943.3506;;;;
2020/09/17 07:39:26;;;;;;;5.4;2.2;;;;;;;18.24;70.50586;943.3806;;;;
2020/09/17 07:41:52;;;;;;;4.3;2.3;;;;;;;18.24;72.07422;943.4587;;;;
2020/09/17 07:44:18;;;;;;;4.8;2.2;;;;;;;18.47;70.20605;943.4498;;;;
2020/09/17 07:46:45;;;;;;;3.9;2.7;;;;;;;18.76;70.05273;943.4871;;;;
2020/09/17 07:49:10;;;;;;;7.1;2.7;;;;;;;18.93;69.84766;943.4963;;;;
2020/09/17 07:51:37;;;;;;;5.1;2.8;;;;;;;19.56;68.49023;943.4641;;;;
2020/09/17 07:54:02;;;;;;;6;2.6;;;;;;;20.62;64.83398;943.4556;;;;
2020/09/17 07:56:27;;;;;;;4.8;2.6;;;;;;;22.05;60.09668;943.4562;;;;
2020/09/17 07:58:52;;;;;;;4.1;2.3;;;;;;;22.57;57.4209;943.3524;;;;
2020/09/17 08:01:20;;;;;;;4.1;2.6;;;;;;;22.83;56.28027;943.4169;;;;
2020/09/17 08:03:45;;;;;;;4.1;1.8;;;;;;;21.79;58.53906;943.514;;;;
2020/09/17 08:06:10;;;;;;;3.8;2.1;;;;;;;21.17;60.90039;943.5724;;;;
2020/09/17 08:08:38;;;;;;;3;1.6;;;;;;;20.85;61.53516;943.5314;;;;
2020/09/17 08:11:09;;;;;;;3.4;1.9;;;;;;;20.65;62.94629;943.5207;;;;
2020/09/17 08:13:40;;;;;;;3.3;1.6;;;;;;;20.9;63.08594;943.514;;;;
2020/09/17 08:16:12;;;;;;;5.9;1.9;;;;;;;21.05;62.42773;943.5516;;;;
2020/09/17 08:18:38;;;;;;;1.9;1.4;;;;;;;21.5;61.33398;943.4827;;;;
2020/09/17 08:21:06;;;;;;;2.8;1.8;;;;;;;21.81;59.65527;943.4549;;;;
2020/09/17 08:23:31;;;;;;;4.1;1.4;;;;;;;21.8;59.25391;943.4099;;;;
2020/09/17 08:25:58;;;;;;;1.9;1.7;;;;;;;22.88;56.79102;943.3384;;;;
2020/09/17 08:28:23;;;;;;;4;1.7;;;;;;;24.32;53.04102;943.3621;;;;
2020/09/17 08:30:52;;;;;;;4;2;;;;;;;25.49;49.64746;943.2896;;;;
2020/09/17 08:33:21;;;;;;;2.3;1.6;;;;;;;26.15;47.46094;943.3253;;;;
2020/09/17 08:35:46;;;;;;;3;1.5;;;;;;;25.98;46.73438;943.3002;;;;
2020/09/17 08:38:11;;;;;;;4.4;2.2;;;;;;;27.1;46.42383;943.2322;;;;
2020/09/17 08:40:36;;;;;;;2.3;1.5;;;;;;;26.82;45.13965;943.1928;;;;
2020/09/17 08:43:01;;;;;;;3.1;1.9;;;;;;;26.41;46.20996;943.2451;;;;
2020/09/17 08:45:29;;;;;;;3.3;1.6;;;;;;;27.05;45.60156;943.1658;;;;
2020/09/17 08:47:54;;;;;;;2;1.7;;;;;;;27.38;44.10449;943.1799;;;;
2020/09/17 08:50:20;;;;;;;5.2;1.4;;;;;;;26.69;45.35059;943.2063;;;;
2020/09/17 08:52:45;;;;;;;2.4;1.6;;;;;;;26.16;46.19727;943.1917;;;;
2020/09/17 08:55:13;;;;;;;2.1;1.4;;;;;;;25.5;47.9248;943.1454;;;;
2020/09/17 08:57:42;;;;;;;2.9;1.7;;;;;;;24.92;50.35156;943.1264;;;;
2020/09/17 09:00:09;;;;;;;2.2;1.7;;;;;;;24.71;50.48145;943.0966;;;;
2020/09/17 09:02:35;;;;;;;2.9;1.7;;;;;;;25.54;49.28711;943.0801;;;;
2020/09/17 09:05:04;;;;;;;2.6;1.6;;;;;;;25.63;48.5166;943.0302;;;;
2020/09/17 09:07:29;;;;;;;1.9;1.2;;;;;;;26.26;48.33691;943.0383;;;;
2020/09/17 09:09:55;;;;;;;4.1;1.7;;;;;;;26.42;46.49512;943.0358;;;;
2020/09/17 09:12:20;;;;;;;3.4;1.8;;;;;;;26.62;47.7832;942.9681;;;;
2020/09/17 09:14:49;;;;;;;2.1;1.4;;;;;;;26.74;46.05469;942.8912;;;;
2020/09/17 09:17:12;;;;;;;2.4;1.1;;;;;;;27.05;45.64844;942.9084;;;;
2020/09/17 09:19:39;;;;;;;3.3;1.6;;;;;;;27.2;44.19336;942.9087;;;;
2020/09/17 09:22:04;;;;;;;3.4;1.6;;;;;;;27.49;45.18359;942.9107;;;;
2020/09/17 09:24:29;;;;;;;2.3;1.3;;;;;;;28.19;44.54102;942.8667;;;;
2020/09/17 09:26:55;;;;;;;2;1.4;;;;;;;28.67;41.93457;942.8684;;;;
2020/09/17 09:29:20;;;;;;;1.9;1.6;;;;;;;28.66;42.14746;942.8461;;;;
2020/09/17 09:31:51;;;;;;;2;1.4;;;;;;;29.02;42.96777;942.8546;;;;
2020/09/17 09:34:18;;;;;;;3;1.5;;;;;;;28.11;42.10742;942.8427;;;;
2020/09/17 09:36:43;;;;;;;1.6;1.2;;;;;;;26.88;44.51758;942.8323;;;;
2020/09/17 09:39:10;;;;;;;1.7;1.3;;;;;;;26.99;45.1084;942.8446;;;;
2020/09/17 09:41:35;;;;;;;2.4;1.4;;;;;;;27.23;44.6709;942.8526;;;;
2020/09/17 09:44:01;;;;;;;4;1.6;;;;;;;27.28;45.83691;942.7974;;;;
2020/09/17 09:46:26;;;;;;;1.8;1.2;;;;;;;27.86;46.1582;942.7484;;;;
2020/09/17 09:48:51;;;;;;;2.8;1.7;;;;;;;27.87;43.42773;942.7252;;;;
2020/09/17 09:51:17;;;;;;;1.9;1.4;;;;;;;27.17;43.12305;942.6884;;;;
2020/09/17 09:53:42;;;;;;;4.2;1.8;;;;;;;26.38;45.39063;942.692;;;;
2020/09/17 09:56:08;;;;;;;2.7;1.6;;;;;;;27.33;45.5459;942.6916;;;;
2020/09/17 09:58:37;;;;;;;2;1.3;;;;;;;27.84;43.49609;942.6747;;;;
2020/09/17 10:01:04;;;;;;;5.3;1.8;;;;;;;27.13;42.69238;942.6939;;;;
2020/09/17 10:03:28;;;;;;;3.7;1.6;;;;;;;27.68;43.49219;942.6539;;;;
2020/09/17 10:06:05;;;;;;;3.3;1.8;;;;;;;28.25;42.73926;942.6406;;;;
2020/09/17 10:08:32;;;;;;;3.3;1.5;;;;;;;28.23;42.05957;942.5964;;;;
2020/09/17 10:11:00;;;;;;;1.5;1.3;;;;;;;28.18;41.85352;942.5081;;;;
2020/09/17 10:13:27;;;;;;;4.3;1.2;;;;;;;28.42;41.94629;942.5469;;;;
2020/09/17 10:15:52;;;;;;;3.8;1.8;;;;;;;28.25;41.84766;942.5358;;;;
2020/09/17 10:18:22;;;;;;;6.3;1.8;;;;;;;27.03;43.57129;942.5692;;;;
2020/09/17 10:20:50;;;;;;;1.6;1.3;;;;;;;27.26;44.65039;942.4775;;;;
2020/09/17 10:23:19;;;;;;;1.9;1.3;;;;;;;27.17;43.78711;942.4793;;;;
2020/09/17 10:25:44;;;;;;;1.8;1.4;;;;;;;26.58;44.88965;942.4585;;;;
2020/09/17 10:28:11;;;;;;;2.6;1.4;;;;;;;26.94;46.1582;942.4628;;;;
2020/09/17 10:30:39;;;;;;;2.9;1.5;;;;;;;27.65;44.7002;942.4078;;;;
2020/09/17 10:33:07;;;;;;;1.9;1.4;;;;;;;27.73;43.48535;942.4608;;;;
2020/09/17 10:35:32;;;;;;;2.4;1.6;;;;;;;28.41;41.88672;942.3895;;;;
2020/09/17 10:38:00;;;;;;;1.4;1.3;;;;;;;29.03;41.3252;942.4358;;;;
2020/09/17 10:40:25;;;;;;;1.9;1.4;;;;;;;29.65;40.07031;942.4275;;;;
2020/09/17 10:42:55;;;;;;;2;1.5;;;;;;;29.94;39.35645;942.4048;;;;
2020/09/17 10:45:23;;;;;;;1.6;1.4;;;;;;;30.06;37.09961;942.4026;;;;
2020/09/17 10:47:55;;;;;;;2.5;1.2;;;;;;;30.35;38.42578;942.3923;;;;
2020/09/17 10:50:22;;;;;;;2;1.5;;;;;;;30.56;38.72949;942.3837;;;;
2020/09/17 10:52:47;;;;;;;1.7;1.1;;;;;;;30.71;39.99707;942.3834;;;;
2020/09/17 10:55:19;;;;;;;3.5;1.8;;;;;;;31.05;38.87891;942.3544;;;;
2020/09/17 10:57:51;;;;;;;2.3;1.4;;;;;;;31.54;37.75977;942.3713;;;;
2020/09/17 11:00:27;;;;;;;2.6;1.4;;;;;;;31.52;38.0459;942.3661;;;;
2020/09/17 11:02:54;;;;;;;1.9;1.2;;;;;;;31.56;38.9707;942.3848;;;;
2020/09/17 11:05:20;;;;;;;1.9;1.4;;;;;;;31.69;39.48633;942.4221;;;;
2020/09/17 11:07:49;;;;;;;2.8;1.3;;;;;;;31.61;40.17285;942.3762;;;;
2020/09/17 11:10:14;;;;;;;3.1;1.2;;;;;;;31.51;39.82813;942.4165;;;;
2020/09/17 11:12:40;;;;;;;3.9;1.2;;;;;;;31.4;40.47656;942.3843;;;;
2020/09/17 11:15:05;;;;;;;3.1;1.6;;;;;;;31.16;40.75586;942.4028;;;;
2020/09/17 11:17:33;;;;;;;1.9;1.5;;;;;;;31.08;39.61133;942.4045;;;;
2020/09/17 11:19:58;;;;;;;4.5;1.6;;;;;;;31.27;39.72363;942.3982;;;;
2020/09/17 11:22:23;;;;;;;1.7;1.4;;;;;;;31.32;39.84766;942.4169;;;;
2020/09/17 11:24:50;;;;;;;2.4;1.2;;;;;;;31.17;40.30078;942.3995;;;;
2020/09/17 11:27:15;;;;;;;5.4;1.6;;;;;;;30.79;41.59473;942.426;;;;
2020/09/17 11:29:43;;;;;;;2.1;1.3;;;;;;;30.77;41.10156;942.3726;;;;
2020/09/17 11:32:08;;;;;;;4.5;1.9;;;;;;;30.49;41.28027;942.3405;;;;
2020/09/17 11:34:38;;;;;;;1.7;1.5;;;;;;;30.38;42.24902;942.3914;;;;
2020/09/17 11:37:03;;;;;;;2.5;1.4;;;;;;;30.09;42.24609;942.3437;;;;
2020/09/17 11:39:30;;;;;;;1.8;1.4;;;;;;;30.01;42.30957;942.3269;;;;
2020/09/17 11:41:55;;;;;;;2.7;1.6;;;;;;;30;42.2373;942.2888;;;;
2020/09/17 11:44:21;;;;;;;5.3;2.2;;;;;;;29.81;42.19629;942.3345;;;;
2020/09/17 11:46:46;;;;;;;2.1;1.4;;;;;;;29.91;42.31152;942.3577;;;;
2020/09/17 11:49:12;;;;;;;3.5;1.6;;;;;;;29.9;43.27832;942.3908;;;;
2020/09/17 11:51:38;;;;;;;3.6;1.7;;;;;;;30;42.22461;942.3965;;;;
2020/09/17 11:54:03;;;;;;;2.8;1.7;;;;;;;30.05;41.63281;942.3044;;;;
2020/09/17 11:56:30;;;;;;;2.8;1.7;;;;;;;30.2;43.30664;942.3161;;;;
2020/09/17 11:58:55;;;;;;;1.6;1.3;;;;;;;30.17;41.94238;942.3361;;;;
2020/09/17 12:01:22;;;;;;;2.8;1.7;;;;;;;30.12;43.02441;942.3257;;;;
2020/09/17 12:03:52;;;;;;;3.1;1.8;;;;;;;29.99;43.69238;942.287;;;;
2020/09/17 12:06:17;;;;;;;2;1.3;;;;;;;29.82;42.50586;942.3897;;;;
2020/09/17 12:08:47;;;;;;;2.3;1.6;;;;;;;29.92;42.37305;942.2946;;;;
2020/09/17 12:11:13;;;;;;;2.9;1.3;;;;;;;29.88;43.80078;942.3072;;;;
2020/09/17 12:13:41;;;;;;;3;2.2;;;;;;;29.66;44.17285;942.2969;;;;
2020/09/17 12:16:06;;;;;;;3;2;;;;;;;29.74;44.80078;942.3144;;;;
2020/09/17 12:18:35;;;;;;;1.8;1.6;;;;;;;29.93;43.86523;942.3084;;;;
2020/09/17 12:21:00;;;;;;;2.3;1.5;;;;;;;29.98;43.94141;942.308;;;;
2020/09/17 12:23:28;;;;;;;1.9;1.3;;;;;;;30.14;43.45703;942.307;;;;
2020/09/17 12:25:53;;;;;;;3.6;1.6;;;;;;;30.3;42.08594;942.2833;;;;
2020/09/17 12:28:20;;;;;;;2.6;1.8;;;;;;;30.38;43.14355;942.2166;;;;
2020/09/17 12:30:49;;;;;;;2.6;1.6;;;;;;;30.38;42.61816;942.2455;;;;
2020/09/17 12:33:14;;;;;;;3.4;1.9;;;;;;;30.49;43.39453;942.1908;;;;
2020/09/17 12:35:43;;;;;;;3;1.6;;;;;;;30.25;43.68164;942.243;;;;
2020/09/17 12:38:08;;;;;;;3.1;1.7;;;;;;;30.23;43.45313;942.2045;;;;
2020/09/17 12:40:40;;;;;;;2.9;1.8;;;;;;;29.97;44.13184;942.1868;;;;
2020/09/17 12:43:07;;;;;;;3.2;1.6;;;;;;;29.77;44.02832;942.2397;;;;
2020/09/17 12:45:32;;;;;;;2.5;1.4;;;;;;;29.64;44.29004;942.2465;;;;
2020/09/17 12:48:00;;;;;;;2.7;1.4;;;;;;;29.86;43.41797;942.1225;;;;
2020/09/17 12:50:25;;;;;;;2.6;1.1;;;;;;;29.89;43.26465;942.1683;;;;
2020/09/17 12:52:53;;;;;;;2.4;1.6;;;;;;;29.96;44.11816;942.1861;;;;
2020/09/17 12:55:18;;;;;;;2.6;1.4;;;;;;;29.76;43.9209;942.1351;;;;
2020/09/17 12:57:48;;;;;;;3.3;1.6;;;;;;;29.41;44.79102;942.1099;;;;
2020/09/17 13:00:25;;;;;;;4.8;2.1;;;;;;;29.05;45.58984;942.1387;;;;
2020/09/17 13:02:54;;;;;;;3.6;2.2;;;;;;;29.28;45.54102;942.1207;;;;
2020/09/17 13:05:19;;;;;;;3.3;1.7;;;;;;;29.26;45.61035;942.03;;;;
2020/09/17 13:07:44;;;;;;;2.4;1.6;;;;;;;29.19;44.44824;942.0571;;;;
2020/09/17 13:10:09;;;;;;;3.3;1.4;;;;;;;29.29;45.4707;942.0502;;;;
2020/09/17 13:12:37;;;;;;;3;1.7;;;;;;;29.36;44.40527;942.0478;;;;
2020/09/17 13:15:02;;;;;;;3.4;1.7;;;;;;;29.35;43.89258;942.0835;;;;
2020/09/17 13:17:27;;;;;;;2.9;1.4;;;;;;;29.29;43.6123;942.0739;;;;
2020/09/17 13:19:56;;;;;;;2.7;1.6;;;;;;;29.27;44.06348;942.1217;;;;
2020/09/17 13:22:21;;;;;;;3.4;1.9;;;;;;;28.9;45.07422;942.1423;;;;
2020/09/17 13:24:46;;;;;;;2.3;1.3;;;;;;;28.5;45.72363;942.0997;;;;
2020/09/17 13:27:12;;;;;;;3;1.5;;;;;;;28.63;45.2373;942.1078;;;;
2020/09/17 13:29:37;;;;;;;4.2;1.8;;;;;;;28.74;45.4873;942.1003;;;;
2020/09/17 13:32:02;;;;;;;2.8;1.7;;;;;;;28.96;46.11523;942.0652;;;;
2020/09/17 13:34:28;;;;;;;3.6;1.6;;;;;;;28.97;45.66504;942.139;;;;
2020/09/17 13:36:53;;;;;;;2.5;1.6;;;;;;;28.84;46.48438;942.1085;;;;
2020/09/17 13:39:20;;;;;;;3.2;1.8;;;;;;;28.65;47.08301;942.0441;;;;
2020/09/17 13:41:50;;;;;;;3.8;1.7;;;;;;;28.47;48.39648;942.0305;;;;
2020/09/17 13:44:16;;;;;;;2.7;1.7;;;;;;;28.58;46.88574;942.0647;;;;
2020/09/17 13:46:40;;;;;;;3.5;2.1;;;;;;;28.43;46.28906;941.9817;;;;
2020/09/17 13:49:08;;;;;;;2.2;1.3;;;;;;;28.53;45.97754;941.9675;;;;
2020/09/17 13:51:33;;;;;;;2.1;1.4;;;;;;;28.74;46.09473;941.9626;;;;
2020/09/17 13:53:58;;;;;;;2.5;1.4;;;;;;;28.77;46.87012;941.9895;;;;
2020/09/17 13:56:23;;;;;;;2.8;1.9;;;;;;;28.55;46.34863;941.9858;;;;
2020/09/17 13:58:51;;;;;;;2.5;1.4;;;;;;;28.76;46.22656;942.0142;;;;
2020/09/17 14:01:15;;;;;;;3.4;2;;;;;;;28.73;47.66406;941.9771;;;;
2020/09/17 14:03:42;;;;;;;3.3;1.9;;;;;;;28.74;47.34277;941.9439;;;;
2020/09/17 14:06:07;;;;;;;2.2;1.8;;;;;;;28.38;47.875;941.9034;;;;
2020/09/17 14:08:35;;;;;;;3.6;2;;;;;;;28.49;46.56836;941.9632;;;;
2020/09/17 14:10:59;;;;;;;2.5;1.5;;;;;;;28.43;47.33398;941.9135;;;;
2020/09/17 14:13:24;;;;;;;2;1.6;;;;;;;28.25;46.9707;941.9509;;;;
2020/09/17 14:15:54;;;;;;;4.5;2;;;;;;;28.12;47.53906;941.9042;;;;
2020/09/17 14:18:19;;;;;;;2.7;1.5;;;;;;;27.87;47.45313;941.8539;;;;
2020/09/17 14:20:44;;;;;;;4.6;2;;;;;;;27.63;47.78516;941.915;;;;